createdAt,value
2022-10-17T00:02:03.321Z,100746.94
2022-10-17T00:04:30.785Z,100710.00
2022-10-17T00:06:58.213Z,100745.16
2022-10-17T00:09:25.638Z,100743.44
2022-10-17T00:11:54.459Z,100741.69
2022-10-17T00:14:21.910Z,100737.34
2022-10-17T00:16:49.374Z,100740.88
2022-10-17T00:19:16.816Z,100737.44
2022-10-17T00:21:44.257Z,100733.91
2022-10-17T00:24:11.692Z,100738.38
2022-10-17T00:26:39.208Z,100744.66
2022-10-17T00:29:08.000Z,100743.81
2022-10-17T00:31:35.707Z,100741.06
2022-10-17T00:34:03.124Z,100739.31
2022-10-17T00:36:30.772Z,100737.63
2022-10-17T00:38:59.187Z,100690.78
2022-10-17T00:41:28.375Z,100739.50
2022-10-17T00:43:57.990Z,100743.03
2022-10-17T00:46:27.702Z,100685.72
2022-10-17T00:48:55.917Z,100745.81
2022-10-17T00:51:30.094Z,100739.59
2022-10-17T00:53:57.569Z,100735.22
2022-10-17T00:56:25.041Z,100742.28
2022-10-17T00:58:52.558Z,100727.06
2022-10-17T01:01:20.134Z,100748.66
2022-10-17T01:03:48.974Z,100748.66
2022-10-17T01:06:16.471Z,100743.41
2022-10-17T01:08:43.899Z,100731.44
2022-10-17T01:11:18.254Z,100689.50
2022-10-17T01:13:47.453Z,100736.66
2022-10-17T01:16:16.262Z,100730.00
2022-10-17T01:18:52.326Z,100734.78
2022-10-17T01:21:32.431Z,100737.31
2022-10-17T01:24:11.146Z,100731.34
2022-10-17T01:26:45.502Z,100733.22
2022-10-17T01:29:34.478Z,100743.69
2022-10-17T01:32:03.982Z,100738.56
2022-10-17T01:34:33.289Z,100738.56
2022-10-17T01:37:03.382Z,100736.75
2022-10-17T01:39:33.387Z,100728.94
2022-10-17T01:42:04.172Z,100722.75
2022-10-17T01:44:35.227Z,100721.81
2022-10-17T01:47:05.429Z,100723.63
2022-10-17T01:49:32.953Z,100724.59
2022-10-17T01:52:02.778Z,100674.84
2022-10-17T01:54:32.479Z,100717.50
2022-10-17T01:57:01.326Z,100714.09
2022-10-17T01:59:31.010Z,100713.22
2022-10-17T02:01:58.569Z,100708.88
2022-10-17T02:04:27.573Z,100704.38
2022-10-17T02:06:55.049Z,100707.13
2022-10-17T02:09:23.654Z,100659.13
2022-10-17T02:12:02.494Z,100700.97
2022-10-17T02:14:34.500Z,100704.56
2022-10-17T02:17:06.589Z,100685.53
2022-10-17T02:19:42.158Z,100665.25
2022-10-17T02:22:18.030Z,100693.16
2022-10-17T02:24:48.167Z,100685.63
2022-10-17T02:27:15.926Z,100693.44
2022-10-17T02:29:47.383Z,100696.84
2022-10-17T02:32:17.167Z,100682.78
2022-10-17T02:34:47.344Z,100687.25
2022-10-17T02:37:15.418Z,100684.66
2022-10-17T02:39:42.839Z,100684.66
2022-10-17T02:42:11.338Z,100690.00
2022-10-17T02:44:38.906Z,100682.88
2022-10-17T02:47:10.166Z,100660.09
2022-10-17T02:49:39.545Z,100688.19
2022-10-17T02:52:11.617Z,100689.03
2022-10-17T02:54:40.756Z,100683.78
2022-10-17T02:57:09.742Z,100698.00
2022-10-17T02:59:37.196Z,100690.00
2022-10-17T03:02:04.844Z,100695.31
2022-10-17T03:04:32.290Z,100690.09
2022-10-17T03:06:59.768Z,100700.75
2022-10-17T03:09:28.554Z,100698.94
2022-10-17T03:11:56.001Z,100684.16
2022-10-17T03:14:23.422Z,100684.00
2022-10-17T03:16:50.876Z,100690.09
2022-10-17T03:19:18.322Z,100685.72
2022-10-17T03:21:45.789Z,100688.38
2022-10-17T03:24:13.366Z,100687.63
2022-10-17T03:26:42.179Z,100681.41
2022-10-17T03:29:09.682Z,100679.72
2022-10-17T03:31:37.202Z,100677.91
2022-10-17T03:34:04.658Z,100678.75
2022-10-17T03:36:32.120Z,100670.00
2022-10-17T03:38:59.551Z,100678.00
2022-10-17T03:41:27.008Z,100674.38
2022-10-17T03:43:55.756Z,100678.00
2022-10-17T03:46:23.261Z,100681.59
2022-10-17T03:48:50.706Z,100686.09
2022-10-17T03:51:18.153Z,100685.22
2022-10-17T03:53:45.608Z,100678.28
2022-10-17T03:56:13.889Z,100646.03
2022-10-17T03:58:41.624Z,100687.88
2022-10-17T04:01:11.500Z,100671.69
2022-10-17T04:03:39.017Z,100695.97
2022-10-17T04:06:06.710Z,100693.31
2022-10-17T04:08:34.428Z,100647.34
2022-10-17T04:11:01.906Z,100604.53
2022-10-17T04:13:29.429Z,100669.81
2022-10-17T04:15:56.941Z,100703.28
2022-10-17T04:18:25.939Z,100706.81
2022-10-17T04:20:53.387Z,100709.47
2022-10-17T04:23:20.838Z,100705.84
2022-10-17T04:25:48.249Z,100708.53
2022-10-17T04:28:15.764Z,100700.72
2022-10-17T04:30:45.500Z,100703.38
2022-10-17T04:33:13.190Z,100713.19
2022-10-17T04:35:41.952Z,100709.75
2022-10-17T04:38:09.441Z,100719.47
2022-10-17T04:40:37.430Z,100722.91
2022-10-17T04:43:04.877Z,100723.84
2022-10-17T04:45:32.354Z,100726.53
2022-10-17T04:47:59.782Z,100725.66
2022-10-17T04:50:27.323Z,100722.22
2022-10-17T04:52:56.069Z,100731.06
2022-10-17T04:55:23.492Z,100720.50
2022-10-17T04:57:51.011Z,100715.19
2022-10-17T05:00:18.540Z,100729.38
2022-10-17T05:02:46.202Z,100726.69
2022-10-17T05:05:13.656Z,100708.97
2022-10-17T05:07:41.115Z,100721.47
2022-10-17T05:10:10.533Z,100713.56
2022-10-17T05:12:37.961Z,100701.88
2022-10-17T05:15:06.382Z,100718.03
2022-10-17T05:17:33.826Z,100711.50
2022-10-17T05:20:01.272Z,100725.06
2022-10-17T05:22:28.964Z,100723.25
2022-10-17T05:24:56.930Z,100728.59
2022-10-17T05:27:25.718Z,100724.13
2022-10-17T05:29:53.154Z,100723.25
2022-10-17T05:32:20.625Z,100692.34
2022-10-17T05:34:48.242Z,100726.53
2022-10-17T05:37:15.667Z,100711.91
2022-10-17T05:39:43.085Z,100721.19
2022-10-17T05:42:10.532Z,100713.19
2022-10-17T05:44:39.603Z,100723.09
2022-10-17T05:47:07.040Z,100722.03
2022-10-17T05:49:45.995Z,100722.13
2022-10-17T05:52:17.366Z,100732.78
2022-10-17T05:54:45.031Z,100687.41
2022-10-17T05:57:12.835Z,100738.00
2022-10-17T05:59:41.579Z,100730.78
2022-10-17T06:02:10.137Z,100741.44
2022-10-17T06:04:37.889Z,100557.28
2022-10-17T06:07:05.853Z,100736.41
2022-10-17T06:09:33.336Z,100743.34
2022-10-17T06:12:00.800Z,100752.09
2022-10-17T06:14:28.253Z,100746.09
2022-10-17T06:16:57.017Z,100766.38
2022-10-17T06:19:24.466Z,100763.47
2022-10-17T06:21:51.897Z,100760.59
2022-10-17T06:24:19.336Z,100765.66
2022-10-17T06:26:47.551Z,100749.16
2022-10-17T06:29:14.977Z,100766.31
2022-10-17T06:31:42.429Z,100766.50
2022-10-17T06:34:11.265Z,100773.19
2022-10-17T06:36:38.694Z,100781.94
2022-10-17T06:39:06.161Z,100774.91
2022-10-17T06:41:33.616Z,100778.34
2022-10-17T06:44:01.049Z,100780.91
2022-10-17T06:46:29.741Z,100782.63
2022-10-17T06:48:57.191Z,100777.47
2022-10-17T06:51:25.949Z,100792.22
2022-10-17T06:53:53.505Z,100787.69
2022-10-17T06:56:20.978Z,100793.00
2022-10-17T06:58:50.677Z,100776.84
2022-10-17T07:01:18.192Z,100764.25
2022-10-17T07:03:48.443Z,100770.25
2022-10-17T07:06:15.887Z,100782.94
2022-10-17T07:08:44.966Z,100695.63
2022-10-17T07:11:12.512Z,100780.75
2022-10-17T07:13:40.044Z,100703.50
2022-10-17T07:16:07.872Z,100802.16
2022-10-17T07:18:35.352Z,100799.41
2022-10-17T07:21:03.698Z,100798.34
2022-10-17T07:23:31.147Z,100725.47
2022-10-17T07:26:02.241Z,100803.69
2022-10-17T07:28:29.781Z,100819.13
2022-10-17T07:30:57.236Z,100814.75
2022-10-17T07:33:24.718Z,100815.16
2022-10-17T07:35:53.137Z,100815.16
2022-10-17T07:38:20.676Z,100821.50
2022-10-17T07:40:55.041Z,100822.00
2022-10-17T07:43:24.092Z,100830.97
2022-10-17T07:45:51.701Z,100834.47
2022-10-17T07:48:19.227Z,100835.44
2022-10-17T07:50:46.842Z,100833.72
2022-10-17T07:53:14.301Z,100774.72
2022-10-17T07:55:42.272Z,100773.56
2022-10-17T07:58:09.936Z,100836.31
2022-10-17T08:00:38.956Z,100824.97
2022-10-17T08:03:06.871Z,100842.28
2022-10-17T08:05:34.459Z,100833.50
2022-10-17T08:08:01.954Z,100830.59
2022-10-17T08:10:29.684Z,100836.88
2022-10-17T08:12:57.875Z,100832.13
2022-10-17T08:15:29.331Z,100832.13
2022-10-17T08:18:00.723Z,100825.72
2022-10-17T08:20:28.247Z,100822.97
2022-10-17T08:22:55.845Z,100820.25
2022-10-17T08:25:23.708Z,100790.47
2022-10-17T08:27:51.138Z,100829.69
2022-10-17T08:30:18.733Z,100832.28
2022-10-17T08:32:46.165Z,100827.56
2022-10-17T08:35:15.623Z,100823.22
2022-10-17T08:37:43.076Z,100827.38
2022-10-17T08:40:14.529Z,100829.13
2022-10-17T08:42:49.905Z,100822.81
2022-10-17T08:45:21.981Z,100762.28
2022-10-17T08:47:52.649Z,100808.63
2022-10-17T08:50:28.964Z,100807.59
2022-10-17T08:52:57.764Z,100805.03
2022-10-17T08:55:29.606Z,100805.03
2022-10-17T08:57:57.070Z,100810.16
2022-10-17T09:00:24.484Z,100807.41
2022-10-17T09:02:58.737Z,100771.28
2022-10-17T09:05:35.949Z,100799.28
2022-10-17T09:08:11.095Z,100801.88
2022-10-17T09:10:46.107Z,100767.38
2022-10-17T09:13:20.482Z,100797.09
2022-10-17T09:15:59.958Z,100795.97
2022-10-17T09:18:28.463Z,100793.09
2022-10-17T09:20:58.851Z,100796.41
2022-10-17T09:23:27.354Z,100795.38
2022-10-17T09:25:56.652Z,100796.88
2022-10-17T09:28:26.765Z,100791.34
2022-10-17T09:30:55.320Z,100794.69
2022-10-17T09:33:35.379Z,100792.63
2022-10-17T09:36:18.683Z,100802.53
2022-10-17T09:38:48.675Z,100786.69
2022-10-17T09:44:18.650Z,100808.19
2022-10-17T09:46:52.750Z,100811.72
2022-10-17T09:49:22.330Z,100822.81
2022-10-17T09:51:51.064Z,100816.94
2022-10-17T09:54:20.914Z,100754.75
2022-10-17T09:56:58.441Z,100818.47
2022-10-17T09:59:31.727Z,100813.75
2022-10-17T10:02:10.707Z,100812.06
2022-10-17T10:04:59.615Z,100813.56
2022-10-17T10:07:29.355Z,100822.13
2022-10-17T10:09:57.125Z,100824.06
2022-10-17T10:12:26.076Z,100820.66
2022-10-17T10:14:55.389Z,100828.09
2022-10-17T10:17:43.960Z,100817.09
2022-10-17T10:20:29.387Z,100828.63
2022-10-17T10:23:17.122Z,100839.34
2022-10-17T10:25:54.760Z,100817.84
2022-10-17T10:28:24.198Z,100839.38
2022-10-17T10:30:52.119Z,100837.28
2022-10-17T10:33:20.341Z,100837.38
2022-10-17T10:35:53.586Z,100826.03
2022-10-17T10:38:22.377Z,100834.47
2022-10-17T10:40:50.695Z,100801.16
2022-10-17T10:43:22.765Z,100842.03
2022-10-17T10:45:50.254Z,100845.56
2022-10-17T10:48:21.850Z,100847.94
2022-10-17T10:50:51.024Z,100824.66
2022-10-17T10:53:34.781Z,100843.53
2022-10-17T10:56:05.316Z,100858.78
2022-10-17T10:58:41.828Z,100841.81
2022-10-17T11:01:14.307Z,100851.03
2022-10-17T11:03:42.945Z,100853.81
2022-10-17T11:06:13.948Z,100846.44
2022-10-17T11:08:45.113Z,100836.47
2022-10-17T11:11:17.964Z,100840.13
2022-10-17T11:13:49.592Z,100835.53
2022-10-17T11:16:24.373Z,100820.94
2022-10-17T11:18:53.829Z,100825.88
2022-10-17T11:21:24.446Z,100828.56
2022-10-17T11:23:57.295Z,100830.19
2022-10-17T11:26:27.048Z,100824.75
2022-10-17T11:28:54.763Z,100795.59
2022-10-17T11:31:22.856Z,100829.00
2022-10-17T11:33:51.770Z,100829.81
2022-10-17T11:36:20.714Z,100817.72
2022-10-17T11:38:50.716Z,100805.75
2022-10-17T11:41:21.795Z,100825.72
2022-10-17T11:43:52.154Z,100794.19
2022-10-17T11:46:21.357Z,100836.75
2022-10-17T11:48:59.179Z,100803.38
2022-10-17T11:54:15.850Z,100846.06
2022-10-17T11:56:48.115Z,100789.91
2022-10-17T11:59:41.071Z,100857.53
2022-10-17T12:02:12.355Z,100866.31
2022-10-17T12:04:49.403Z,100853.69
2022-10-17T12:07:20.666Z,100867.16
2022-10-17T12:09:50.487Z,100847.13
2022-10-17T12:12:27.282Z,100844.34
2022-10-17T12:14:55.076Z,100876.16
2022-10-17T12:17:34.748Z,100884.09
2022-10-17T12:20:31.347Z,100882.28
2022-10-17T12:23:03.220Z,100876.16
2022-10-17T12:25:33.429Z,100880.53
2022-10-17T12:28:14.145Z,100873.16
2022-10-17T12:30:52.466Z,100899.28
2022-10-17T12:33:22.343Z,100890.53
2022-10-17T12:35:50.898Z,100894.16
2022-10-17T12:38:23.204Z,100892.44
2022-10-17T12:41:01.114Z,100860.97
2022-10-17T12:43:54.300Z,100892.66
2022-10-17T12:46:54.306Z,100895.44
2022-10-17T12:49:49.143Z,100900.81
2022-10-17T12:52:25.060Z,100909.81
2022-10-17T12:55:11.535Z,100919.75
2022-10-17T12:57:43.664Z,100914.72
2022-10-17T13:00:17.193Z,100912.06
2022-10-17T13:02:44.639Z,100906.03
2022-10-17T13:05:15.294Z,100904.22
2022-10-17T13:07:43.489Z,100908.19
2022-10-17T13:10:21.265Z,100916.84
2022-10-17T13:12:48.773Z,100868.03
2022-10-17T13:15:18.895Z,100906.34
2022-10-17T13:17:46.225Z,100912.78
2022-10-17T13:20:24.464Z,100881.94
2022-10-17T13:22:55.446Z,100894.91
2022-10-17T13:25:23.214Z,100920.94
2022-10-17T13:27:50.756Z,100931.75
2022-10-17T13:30:30.888Z,100928.22
2022-10-17T13:32:59.915Z,100931.00
2022-10-17T13:35:55.288Z,100896.50
2022-10-17T13:38:17.048Z,100917.72
2022-10-17T13:40:50.154Z,100912.38
2022-10-17T13:43:18.557Z,100918.66
2022-10-17T13:45:49.911Z,100891.38
2022-10-17T13:48:19.909Z,100928.66
2022-10-17T13:50:48.717Z,100945.66
2022-10-17T13:53:21.774Z,100934.00
2022-10-17T13:56:09.492Z,100929.59
2022-10-17T13:58:42.737Z,100857.88
2022-10-17T14:01:11.838Z,100931.53
2022-10-17T14:03:48.344Z,100870.94
2022-10-17T14:06:18.375Z,100937.00
2022-10-17T14:09:04.454Z,100946.72
2022-10-17T14:11:34.659Z,100942.44
2022-10-17T14:14:02.611Z,100947.69
2022-10-17T14:16:37.190Z,100896.06
2022-10-17T14:19:05.044Z,100940.41
2022-10-17T14:21:43.228Z,100937.81
2022-10-17T14:24:25.634Z,100935.16
2022-10-17T14:26:53.956Z,100936.53
2022-10-17T14:29:25.944Z,100909.31
2022-10-17T14:32:03.409Z,100918.94
2022-10-17T14:34:32.500Z,100951.63
2022-10-17T14:36:59.939Z,100948.22
2022-10-17T14:39:27.517Z,100942.50
2022-10-17T14:41:55.054Z,100965.09
2022-10-17T14:44:27.587Z,100968.75
2022-10-17T14:46:57.711Z,100982.25
2022-10-17T14:49:28.439Z,100963.72
2022-10-17T14:52:25.171Z,100965.22
2022-10-17T14:54:52.622Z,100972.59
2022-10-17T14:57:22.003Z,100990.25
2022-10-17T14:59:54.154Z,100981.56
2022-10-17T15:02:23.752Z,100976.94
2022-10-17T15:04:53.384Z,100996.78
2022-10-17T15:07:21.394Z,101000.41
2022-10-17T15:09:49.738Z,100999.66
2022-10-17T15:12:18.318Z,100959.81
2022-10-17T15:14:47.267Z,101013.16
2022-10-17T15:17:16.054Z,101013.16
2022-10-17T15:19:43.530Z,101015.06
2022-10-17T15:22:12.362Z,101015.06
2022-10-17T15:24:39.910Z,101008.94
2022-10-17T15:27:08.394Z,101018.69
2022-10-17T15:29:35.862Z,101012.59
2022-10-17T15:32:03.551Z,101011.72
2022-10-17T15:34:31.029Z,101009.03
2022-10-17T15:36:58.685Z,101019.00
2022-10-17T15:39:27.558Z,100977.78
2022-10-17T15:41:54.994Z,101027.97
2022-10-17T15:44:22.941Z,101032.47
2022-10-17T15:46:50.411Z,101023.59
2022-10-17T15:49:19.649Z,101027.41
2022-10-17T15:51:50.335Z,101025.47
2022-10-17T15:54:19.158Z,101023.75
2022-10-17T15:56:50.219Z,101029.09
2022-10-17T15:59:19.461Z,101033.59
2022-10-17T16:01:48.559Z,101034.56
2022-10-17T16:04:16.062Z,100985.25
2022-10-17T16:06:43.713Z,101042.69
2022-10-17T16:09:11.196Z,101051.69
2022-10-17T16:11:40.037Z,101053.38
2022-10-17T16:14:11.063Z,101016.75
2022-10-17T16:16:38.509Z,101055.50
2022-10-17T16:19:05.994Z,101056.25
2022-10-17T16:21:34.707Z,101058.16
2022-10-17T16:24:02.288Z,101059.03
2022-10-17T16:26:29.742Z,101043.88
2022-10-17T16:28:58.083Z,101072.50
2022-10-17T16:31:29.594Z,101079.66
2022-10-17T16:33:57.877Z,101079.75
2022-10-17T16:36:25.491Z,101088.66
2022-10-17T16:38:53.974Z,101087.78
2022-10-17T16:41:23.301Z,101074.16
2022-10-17T16:43:51.186Z,101098.56
2022-10-17T16:46:18.901Z,101096.88
2022-10-17T16:48:47.885Z,101096.88
2022-10-17T16:51:15.746Z,101100.50
2022-10-17T16:53:44.351Z,101104.03
2022-10-17T16:56:12.737Z,101112.16
2022-10-17T16:58:40.322Z,101107.75
2022-10-17T17:01:09.409Z,101112.25
2022-10-17T17:03:37.727Z,101111.41
2022-10-17T17:06:07.115Z,101114.06
2022-10-17T17:08:34.725Z,101115.00
2022-10-17T17:11:02.184Z,101124.88
2022-10-17T17:13:29.881Z,101060.53
2022-10-17T17:16:06.865Z,101136.41
2022-10-17T17:18:34.413Z,101139.19
2022-10-17T17:21:02.269Z,101141.00
2022-10-17T17:23:33.777Z,101130.03
2022-10-17T17:26:02.388Z,101147.28
2022-10-17T17:28:30.045Z,101149.97
2022-10-17T17:30:57.621Z,101159.84
2022-10-17T17:33:25.201Z,101105.00
2022-10-17T17:35:55.574Z,101166.97
2022-10-17T17:38:23.266Z,101171.56
2022-10-17T17:40:52.049Z,101177.69
2022-10-17T17:43:19.567Z,101167.94
2022-10-17T17:45:47.083Z,101116.38
2022-10-17T17:48:14.682Z,101139.59
2022-10-17T17:50:42.585Z,101136.59
2022-10-17T17:53:10.422Z,101178.75
2022-10-17T17:55:37.871Z,101171.09
2022-10-17T17:58:08.061Z,101183.22
2022-10-17T18:00:35.803Z,101175.28
2022-10-17T18:03:03.272Z,101185.03
2022-10-17T18:05:30.780Z,101173.09
2022-10-17T18:07:58.236Z,101183.31
2022-10-17T18:10:25.712Z,101185.13
2022-10-17T18:12:53.162Z,101190.56
2022-10-17T18:15:21.928Z,101182.44
2022-10-17T18:17:49.357Z,101181.59
2022-10-17T18:20:16.976Z,101177.19
2022-10-17T18:22:44.475Z,101174.50
2022-10-17T18:25:11.913Z,101179.13
2022-10-17T18:27:39.426Z,101171.94
2022-10-17T18:30:08.417Z,101184.47
2022-10-17T18:32:37.200Z,101179.13
2022-10-17T18:35:04.747Z,101171.19
2022-10-17T18:37:32.314Z,101178.34
2022-10-17T18:39:59.778Z,101184.66
2022-10-17T18:42:27.315Z,101190.00
2022-10-17T18:44:54.945Z,101187.34
2022-10-17T18:47:22.375Z,101193.59
2022-10-17T18:49:51.207Z,101196.28
2022-10-17T18:52:18.629Z,101192.78
2022-10-17T18:54:46.094Z,101192.88
2022-10-17T18:57:13.529Z,101189.31
2022-10-17T18:59:40.953Z,101208.91
2022-10-17T19:02:09.725Z,101212.50
2022-10-17T19:04:37.189Z,101209.00
2022-10-17T19:07:05.986Z,101209.00
2022-10-17T19:09:33.718Z,101205.53
2022-10-17T19:12:01.149Z,101217.13
2022-10-17T19:14:30.403Z,101229.53
2022-10-17T19:16:59.530Z,101224.25
2022-10-17T19:19:27.376Z,101227.91
2022-10-17T19:21:54.832Z,101226.16
2022-10-17T19:24:24.459Z,101232.38
2022-10-17T19:26:53.507Z,101220.72
2022-10-17T19:29:21.560Z,101236.00
2022-10-17T19:31:49.117Z,101240.59
2022-10-17T19:34:16.977Z,101236.28
2022-10-17T19:36:44.781Z,101236.94
2022-10-17T19:39:13.389Z,101243.25
2022-10-17T19:41:42.316Z,101243.25
2022-10-17T19:44:09.992Z,101209.78
2022-10-17T19:46:37.424Z,101246.03
2022-10-17T19:49:05.244Z,101224.69
2022-10-17T19:51:32.956Z,101223.47
2022-10-17T19:54:01.160Z,101209.88
2022-10-17T19:56:29.468Z,101205.41
2022-10-17T19:58:58.305Z,101237.13
2022-10-17T20:01:27.404Z,101253.16
2022-10-17T20:03:54.957Z,101184.31
2022-10-17T20:06:22.537Z,101253.25
2022-10-17T20:08:50.009Z,101260.44
2022-10-17T20:11:19.548Z,101213.78
2022-10-17T20:13:47.025Z,101259.56
2022-10-17T20:16:16.642Z,101262.25
2022-10-17T20:18:44.150Z,101203.47
2022-10-17T20:21:13.550Z,101264.91
2022-10-17T20:23:41.194Z,101257.84
2022-10-17T20:26:25.779Z,101216.06
2022-10-17T20:28:53.773Z,101270.44
2022-10-17T20:31:23.857Z,101234.56
2022-10-17T20:33:54.882Z,101276.84
2022-10-17T20:36:23.501Z,101275.00
2022-10-17T20:38:53.865Z,101282.94
2022-10-17T20:41:21.423Z,101276.84
2022-10-17T20:43:50.861Z,101279.44
2022-10-17T20:46:35.115Z,101288.38
2022-10-17T20:49:04.703Z,101299.94
2022-10-17T20:51:32.128Z,101303.56
2022-10-17T20:53:59.596Z,101304.50
2022-10-17T20:56:27.885Z,101265.50
2022-10-17T20:58:56.157Z,101296.47
2022-10-17T21:01:23.795Z,101277.22
2022-10-17T21:03:51.268Z,101317.03
2022-10-17T21:06:20.108Z,101260.00
2022-10-17T21:08:48.185Z,101324.19
2022-10-17T21:11:16.872Z,101325.97
2022-10-17T21:13:44.338Z,101312.66
2022-10-17T21:16:12.574Z,101278.00
2022-10-17T21:18:40.317Z,101336.75
2022-10-17T21:21:09.500Z,101329.59
2022-10-17T21:23:38.361Z,101313.84
2022-10-17T21:26:07.264Z,101349.28
2022-10-17T21:28:35.446Z,101343.94
2022-10-17T21:31:13.920Z,101341.16
2022-10-17T21:33:41.802Z,101340.38
2022-10-17T21:36:09.644Z,101330.66
2022-10-17T21:38:38.562Z,101337.81
2022-10-17T21:41:06.488Z,101306.03
2022-10-17T21:43:34.478Z,101343.16
2022-10-17T21:46:03.470Z,101345.81
2022-10-17T21:48:30.990Z,101295.66
2022-10-17T21:51:00.528Z,101306.03
2022-10-17T21:53:28.026Z,101338.06
2022-10-17T21:55:59.370Z,101333.50
2022-10-17T21:58:26.805Z,101347.72
2022-10-17T22:00:54.249Z,101339.78
2022-10-17T22:03:21.704Z,101338.84
2022-10-17T22:05:49.187Z,101348.69
2022-10-17T22:08:16.686Z,101346.00
2022-10-17T22:10:44.160Z,101345.13
2022-10-17T22:13:12.978Z,101335.41
2022-10-17T22:15:40.432Z,101335.41
2022-10-17T22:18:07.922Z,101346.09
2022-10-17T22:20:35.358Z,101352.41
2022-10-17T22:23:02.828Z,101358.59
2022-10-17T22:25:30.269Z,101353.41
2022-10-17T22:27:57.728Z,101350.56
2022-10-17T22:30:26.513Z,101340.50
2022-10-17T22:32:53.961Z,101352.41
2022-10-17T22:35:21.419Z,101340.31
2022-10-17T22:37:48.854Z,101350.66
2022-10-17T22:40:16.470Z,101354.28
2022-10-17T22:42:43.917Z,101364.97
2022-10-17T22:45:11.629Z,101359.63
2022-10-17T22:47:40.388Z,101353.31
2022-10-17T22:50:08.278Z,101357.91
2022-10-17T22:52:35.712Z,101361.50
2022-10-17T22:55:04.413Z,101362.47
2022-10-17T22:57:31.867Z,101358.00
2022-10-17T22:59:59.343Z,101357.13
2022-10-17T23:02:26.828Z,101357.13
2022-10-17T23:04:55.694Z,101360.75
2022-10-17T23:07:23.124Z,101367.03
2022-10-17T23:09:50.630Z,101361.69
2022-10-17T23:12:18.166Z,101366.19
2022-10-17T23:14:45.813Z,101375.06
2022-10-17T23:17:13.689Z,101322.50
2022-10-17T23:19:41.385Z,101370.66
2022-10-17T23:22:10.249Z,101348.59
2022-10-17T23:24:37.686Z,101375.13
2022-10-17T23:27:05.143Z,101372.56
2022-10-17T23:29:33.043Z,101363.09
2022-10-17T23:32:00.473Z,101377.06
2022-10-17T23:34:28.170Z,101377.91
2022-10-17T23:36:55.631Z,101376.19
2022-10-17T23:39:24.448Z,101380.66
2022-10-17T23:41:51.904Z,101379.81
2022-10-17T23:44:19.362Z,101379.81
2022-10-17T23:46:46.821Z,101378.06
2022-10-17T23:49:14.439Z,101382.50
2022-10-17T23:51:41.881Z,101379.91
2022-10-17T23:54:09.332Z,101385.16
2022-10-17T23:56:38.113Z,101386.09
2022-10-17T23:59:05.549Z,101387.91
